createdAt,value
2024-05-09T00:07:02.232Z,1028.73
2024-05-09T00:26:17.591Z,1028.8
2024-05-09T00:45:33.776Z,1028.7
2024-05-09T00:55:11.375Z,1028.62
2024-05-09T01:04:49.663Z,1028.58
2024-05-09T01:24:05.515Z,1028.63
2024-05-09T01:33:43.888Z,1028.68
2024-05-09T01:43:21.422Z,1028.57
2024-05-09T01:52:59.193Z,1028.67
2024-05-09T02:02:36.520Z,1028.7
2024-05-09T02:12:14.167Z,1028.68
2024-05-09T02:21:52.301Z,1028.67
2024-05-09T03:00:25.892Z,1028.63
2024-05-09T03:09:59.568Z,1028.55
2024-05-09T03:19:37.379Z,1028.59
2024-05-09T03:29:14.299Z,1028.59
2024-05-09T03:38:51.621Z,1028.71
2024-05-09T03:48:29.316Z,1028.69
2024-05-09T03:58:06.840Z,1028.78
2024-05-09T04:07:44.425Z,1028.75
2024-05-09T04:17:22.036Z,1028.79
2024-05-09T04:26:59.662Z,1028.75
2024-05-09T04:36:39.054Z,1028.87
2024-05-09T04:46:15.070Z,1028.89
2024-05-09T04:55:53.102Z,1028.89
2024-05-09T05:05:33.144Z,1028.95
2024-05-09T05:15:10.534Z,1028.91
2024-05-09T05:24:48.837Z,1028.89
2024-05-09T05:44:05.013Z,1028.99
2024-05-09T05:53:43.077Z,1029.04
2024-05-09T06:03:22.007Z,1029.08
2024-05-09T06:13:00.380Z,1029.06
2024-05-09T06:22:38.091Z,1029.06
2024-05-09T06:32:15.999Z,1029.02
2024-05-09T06:41:54.167Z,1028.97
2024-05-09T06:51:32.299Z,1028.84
2024-05-09T07:01:11.154Z,1028.79
2024-05-09T07:10:49.565Z,1028.68
2024-05-09T07:20:32.235Z,1028.58
2024-05-09T07:30:07.385Z,1028.46
2024-05-09T07:39:45.271Z,1028.35
2024-05-09T07:59:03.230Z,1028.11
2024-05-09T08:08:42.516Z,1027.98
2024-05-09T08:18:21.067Z,1027.85
2024-05-09T08:28:01.290Z,1027.62
2024-05-09T08:37:40.835Z,1027.5
2024-05-09T08:47:19.908Z,1027.43
2024-05-09T08:57:00.402Z,1027.3
2024-05-09T09:06:40.531Z,1027.11
2024-05-09T09:16:24.523Z,1027.02
2024-05-09T09:26:04.162Z,1026.97
2024-05-09T09:35:48.392Z,1027.06
2024-05-09T09:45:26.216Z,1027
2024-05-09T09:55:18.208Z,1026.76
2024-05-09T10:05:01.576Z,1026.78
2024-05-09T10:14:39.248Z,1026.66
2024-05-09T10:24:30.846Z,1026.52
2024-05-09T10:34:14.463Z,1026.13
2024-05-09T10:43:57.419Z,1026.19
2024-05-09T10:53:30.578Z,1026.15
2024-05-09T11:03:17.502Z,1026.12
2024-05-09T11:12:59.975Z,1025.88
2024-05-09T11:22:39.981Z,1025.86
2024-05-09T11:32:22.425Z,1025.63
2024-05-09T11:41:59.789Z,1025.59
2024-05-09T11:51:39.135Z,1025.45
2024-05-09T12:01:22.095Z,1025.6
2024-05-09T12:10:58.602Z,1025.52
2024-05-09T12:20:37.818Z,1025.25
2024-05-09T12:30:28.034Z,1025.2
2024-05-09T12:39:32.454Z,1025.39
2024-05-09T12:59:08.130Z,1025.18
2024-05-09T13:18:23.428Z,1024.74
2024-05-09T13:28:08.159Z,1024.76
2024-05-09T13:47:01.428Z,1024.77
2024-05-09T14:06:15.415Z,1024.51
2024-05-09T14:15:42.741Z,1024.5
2024-05-09T14:34:50.877Z,1024.21
2024-05-09T14:44:30.277Z,1024.13
2024-05-09T14:54:12.947Z,1023.97
2024-05-09T15:04:05.416Z,1023.7
2024-05-09T15:13:29.863Z,1023.89
2024-05-09T15:23:03.038Z,1023.73
2024-05-09T15:32:47.339Z,1023.74
2024-05-09T15:42:25.227Z,1023.59
2024-05-09T15:52:03.321Z,1023.52
2024-05-09T16:01:40.498Z,1023.47
2024-05-09T16:11:16.195Z,1023.47
2024-05-09T16:20:51.881Z,1023.58
2024-05-09T16:30:31.890Z,1023.67
2024-05-09T16:49:42.052Z,1023.72
2024-05-09T16:59:23.133Z,1023.77
2024-05-09T17:09:05.137Z,1023.75
2024-05-09T17:28:13.344Z,1023.75
2024-05-09T17:37:51.669Z,1023.74
2024-05-09T17:57:06.211Z,1023.84
2024-05-09T18:06:44.337Z,1023.89
2024-05-09T18:16:21.654Z,1023.95
2024-05-09T18:25:57.959Z,1024.04
2024-05-09T18:35:35.104Z,1024.14
2024-05-09T18:45:11.878Z,1024.28
2024-05-09T18:54:48.731Z,1024.43
2024-05-09T19:04:25.823Z,1024.6
2024-05-09T19:14:02.637Z,1024.74
2024-05-09T19:23:44.202Z,1024.79
2024-05-09T19:33:16.741Z,1024.95
2024-05-09T19:42:53.925Z,1025.08
2024-05-09T19:52:32.176Z,1025.25
2024-05-09T20:11:46.548Z,1025.4
2024-05-09T20:21:23.450Z,1025.41
2024-05-09T20:31:00.594Z,1025.42
2024-05-09T20:40:39.239Z,1025.39
2024-05-09T20:59:53.932Z,1025.53
2024-05-09T21:09:31.400Z,1025.59
2024-05-09T21:19:08.710Z,1025.68
2024-05-09T21:28:45.800Z,1025.73
2024-05-09T21:38:23.115Z,1025.71
2024-05-09T21:48:00.774Z,1025.71
2024-05-09T21:57:38.295Z,1025.71
2024-05-09T22:07:16.088Z,1025.68
2024-05-09T22:16:53.606Z,1025.8
2024-05-09T22:45:46.042Z,1025.87
2024-05-09T22:55:23.206Z,1025.87
2024-05-09T23:05:00.723Z,1025.83
2024-05-09T23:14:37.937Z,1025.81
2024-05-09T23:24:15.497Z,1025.79
2024-05-09T23:33:53.312Z,1025.76
2024-05-09T23:43:31.106Z,1025.72
2024-05-09T23:53:09.173Z,1025.7
